createdAt,value
2022-09-15T00:00:59.155Z,0.00
2022-09-15T00:01:59.368Z,0.00
2022-09-15T00:02:59.591Z,0.00
2022-09-15T00:03:59.757Z,0.00
2022-09-15T00:04:59.925Z,0.00
2022-09-15T00:06:00.096Z,0.00
2022-09-15T00:07:00.300Z,0.00
2022-09-15T00:08:00.480Z,0.00
2022-09-15T00:09:00.642Z,0.00
2022-09-15T00:10:00.812Z,0.00
2022-09-15T00:11:00.988Z,0.00
2022-09-15T00:12:01.172Z,0.00
2022-09-15T00:13:01.341Z,0.00
2022-09-15T00:14:01.502Z,0.00
2022-09-15T00:15:01.669Z,0.00
2022-09-15T00:16:01.829Z,0.00
2022-09-15T00:17:02.105Z,0.00
2022-09-15T00:18:02.189Z,0.00
2022-09-15T00:19:02.643Z,0.00
2022-09-15T00:20:02.488Z,0.00
2022-09-15T00:21:02.671Z,0.00
2022-09-15T00:22:02.862Z,0.00
2022-09-15T00:23:03.027Z,0.00
2022-09-15T00:24:03.198Z,0.00
2022-09-15T00:25:03.371Z,0.00
2022-09-15T00:26:03.532Z,0.00
2022-09-15T00:27:03.727Z,0.00
2022-09-15T00:28:03.911Z,0.00
2022-09-15T00:29:04.082Z,0.00
2022-09-15T00:30:04.253Z,0.00
2022-09-15T00:31:04.454Z,0.00
2022-09-15T00:32:04.708Z,0.00
2022-09-15T00:33:04.771Z,0.00
2022-09-15T00:34:04.958Z,0.00
2022-09-15T00:35:05.113Z,0.00
2022-09-15T00:36:05.281Z,0.00
2022-09-15T00:37:05.470Z,0.00
2022-09-15T00:38:05.650Z,0.00
2022-09-15T00:39:05.834Z,0.00
2022-09-15T00:40:06.112Z,0.00
2022-09-15T00:41:06.282Z,0.00
2022-09-15T00:42:06.375Z,0.00
2022-09-15T00:43:06.545Z,0.00
2022-09-15T00:44:06.726Z,0.00
2022-09-15T00:45:06.915Z,0.00
2022-09-15T00:46:07.160Z,0.00
2022-09-15T00:47:19.155Z,0.00
2022-09-15T00:48:08.428Z,0.00
2022-09-15T00:49:07.614Z,0.00
2022-09-15T00:50:07.784Z,0.00
2022-09-15T00:51:07.963Z,0.00
2022-09-15T00:52:08.165Z,0.00
2022-09-15T00:53:08.334Z,0.00
2022-09-15T00:54:08.509Z,0.00
2022-09-15T00:55:08.689Z,0.00
2022-09-15T00:56:08.853Z,0.00
2022-09-15T00:57:09.057Z,0.00
2022-09-15T00:58:09.232Z,0.00
2022-09-15T00:59:09.403Z,0.00
2022-09-15T01:00:09.593Z,0.00
2022-09-15T01:01:09.817Z,0.00
2022-09-15T01:02:09.934Z,0.00
2022-09-15T01:03:10.072Z,0.00
2022-09-15T01:04:10.238Z,0.00
2022-09-15T01:05:10.417Z,0.00
2022-09-15T01:06:10.582Z,0.00
2022-09-15T01:07:10.772Z,0.00
2022-09-15T01:08:10.948Z,0.00
2022-09-15T01:09:11.121Z,0.00
2022-09-15T01:10:11.290Z,0.00
2022-09-15T01:11:11.496Z,0.00
2022-09-15T01:12:11.692Z,0.00
2022-09-15T01:13:11.921Z,0.00
2022-09-15T01:14:12.105Z,0.00
2022-09-15T01:15:12.290Z,0.00
2022-09-15T01:16:12.540Z,0.00
2022-09-15T01:17:12.612Z,0.00
2022-09-15T01:18:12.795Z,0.00
2022-09-15T01:19:12.981Z,0.00
2022-09-15T01:20:13.144Z,0.00
2022-09-15T01:21:13.319Z,0.00
2022-09-15T01:22:13.500Z,0.00
2022-09-15T01:23:13.695Z,0.00
2022-09-15T01:24:13.866Z,0.00
2022-09-15T01:25:14.044Z,0.00
2022-09-15T01:26:14.213Z,0.00
2022-09-15T01:27:40.438Z,0.00
2022-09-15T01:28:15.518Z,0.00
2022-09-15T01:29:14.694Z,0.00
2022-09-15T01:30:14.857Z,0.00
2022-09-15T01:31:15.103Z,0.00
2022-09-15T01:32:15.217Z,0.00
2022-09-15T01:33:15.395Z,0.00
2022-09-15T01:34:15.567Z,0.00
2022-09-15T01:35:15.756Z,0.00
2022-09-15T01:36:15.921Z,0.00
2022-09-15T01:37:16.141Z,0.00
2022-09-15T01:38:16.311Z,0.00
2022-09-15T01:39:16.477Z,0.00
2022-09-15T01:40:16.688Z,0.00
2022-09-15T01:41:16.774Z,0.00
2022-09-15T01:42:16.953Z,0.00
2022-09-15T01:43:17.128Z,0.00
2022-09-15T01:44:17.302Z,0.00
2022-09-15T01:45:17.466Z,0.00
2022-09-15T01:46:17.711Z,0.00
2022-09-15T01:47:17.824Z,0.00
2022-09-15T01:48:17.990Z,0.00
2022-09-15T01:49:18.164Z,0.00
2022-09-15T01:50:18.329Z,0.00
2022-09-15T01:51:18.514Z,0.00
2022-09-15T01:52:18.723Z,0.00
2022-09-15T01:53:18.901Z,0.00
2022-09-15T01:54:19.064Z,0.00
2022-09-15T01:55:19.255Z,0.00
2022-09-15T01:56:19.434Z,0.00
2022-09-15T01:57:19.620Z,0.00
2022-09-15T01:58:19.796Z,0.00
2022-09-15T01:59:19.985Z,0.00
2022-09-15T02:00:20.191Z,0.00
2022-09-15T02:01:20.500Z,0.00
2022-09-15T02:02:20.575Z,0.00
2022-09-15T02:03:20.754Z,0.00
2022-09-15T02:04:20.946Z,0.00
2022-09-15T02:05:21.130Z,0.00
2022-09-15T02:06:21.310Z,0.00
2022-09-15T02:07:21.500Z,0.00
2022-09-15T02:08:21.684Z,0.00
2022-09-15T02:09:21.856Z,0.00
2022-09-15T02:10:22.034Z,0.00
2022-09-15T02:11:22.208Z,0.00
2022-09-15T02:12:22.405Z,0.00
2022-09-15T02:13:22.586Z,0.00
2022-09-15T02:14:22.761Z,0.00
2022-09-15T02:15:22.935Z,0.00
2022-09-15T02:16:23.169Z,0.00
2022-09-15T02:17:23.244Z,0.00
2022-09-15T02:18:23.411Z,0.00
2022-09-15T02:19:23.579Z,0.00
2022-09-15T02:20:23.752Z,0.00
2022-09-15T02:21:23.907Z,0.00
2022-09-15T02:22:24.093Z,0.00
2022-09-15T02:23:24.274Z,0.00
2022-09-15T02:24:24.439Z,0.00
2022-09-15T02:25:24.606Z,0.00
2022-09-15T02:26:24.779Z,0.00
2022-09-15T02:27:24.960Z,0.00
2022-09-15T02:28:25.139Z,0.00
2022-09-15T02:29:25.304Z,0.00
2022-09-15T02:30:25.487Z,0.00
2022-09-15T02:31:25.786Z,0.00
2022-09-15T02:32:25.860Z,0.00
2022-09-15T02:33:26.034Z,0.00
2022-09-15T02:34:26.207Z,0.00
2022-09-15T02:35:26.375Z,0.00
2022-09-15T02:36:26.547Z,0.00
2022-09-15T02:37:26.737Z,0.00
2022-09-15T02:38:26.916Z,0.00
2022-09-15T02:39:27.075Z,0.00
2022-09-15T02:40:27.292Z,0.00
2022-09-15T02:41:27.456Z,0.00
2022-09-15T02:42:27.653Z,0.00
2022-09-15T02:43:27.817Z,0.00
2022-09-15T02:44:27.995Z,0.00
2022-09-15T02:45:28.216Z,0.00
2022-09-15T02:46:28.305Z,0.00
2022-09-15T02:47:28.496Z,0.00
2022-09-15T02:48:28.669Z,0.00
2022-09-15T02:49:28.847Z,0.00
2022-09-15T02:50:29.024Z,0.00
2022-09-15T02:51:29.205Z,0.00
2022-09-15T02:52:29.393Z,0.00
2022-09-15T02:53:29.574Z,0.00
2022-09-15T02:54:29.752Z,0.00
2022-09-15T02:55:29.921Z,0.00
2022-09-15T02:56:30.095Z,0.00
2022-09-15T02:57:30.284Z,0.00
2022-09-15T02:58:30.455Z,0.00
2022-09-15T02:59:30.624Z,0.00
2022-09-15T03:00:30.805Z,0.00
2022-09-15T03:01:30.975Z,0.00
2022-09-15T03:02:31.270Z,0.00
2022-09-15T03:03:31.373Z,0.00
2022-09-15T03:04:31.548Z,0.00
2022-09-15T03:05:31.720Z,0.00
2022-09-15T03:06:31.892Z,0.00
2022-09-15T03:07:32.091Z,0.00
2022-09-15T03:08:32.273Z,0.00
2022-09-15T03:09:32.448Z,0.00
2022-09-15T03:10:32.626Z,0.00
2022-09-15T03:11:32.810Z,0.00
2022-09-15T03:12:33.008Z,0.00
2022-09-15T03:13:33.182Z,0.00
2022-09-15T03:14:33.353Z,0.00
2022-09-15T03:15:33.532Z,0.00
2022-09-15T03:16:33.766Z,0.00
2022-09-15T03:17:33.922Z,0.00
2022-09-15T03:18:34.111Z,0.00
2022-09-15T03:19:34.290Z,0.00
2022-09-15T03:20:34.480Z,0.00
2022-09-15T03:21:34.669Z,0.00
2022-09-15T03:22:34.860Z,0.00
2022-09-15T03:23:35.039Z,0.00
2022-09-15T03:24:35.228Z,0.00
2022-09-15T03:25:35.424Z,0.00
2022-09-15T03:26:35.624Z,0.00
2022-09-15T03:27:35.818Z,0.00
2022-09-15T03:28:36.009Z,0.00
2022-09-15T03:29:36.187Z,0.00
2022-09-15T03:30:36.361Z,0.00
2022-09-15T03:31:36.570Z,0.00
2022-09-15T03:32:36.771Z,0.00
2022-09-15T03:33:36.942Z,0.00
2022-09-15T03:34:37.133Z,0.00
2022-09-15T03:35:37.322Z,0.00
2022-09-15T03:36:37.531Z,0.00
2022-09-15T03:37:37.715Z,0.00
2022-09-15T03:38:37.897Z,0.00
2022-09-15T03:39:38.090Z,0.00
2022-09-15T03:40:38.265Z,0.00
2022-09-15T03:41:38.456Z,0.00
2022-09-15T03:42:38.673Z,0.00
2022-09-15T03:43:38.856Z,0.00
2022-09-15T03:44:39.037Z,0.00
2022-09-15T03:45:39.283Z,0.00
2022-09-15T03:46:39.457Z,0.00
2022-09-15T03:47:39.668Z,0.00
2022-09-15T03:48:39.852Z,0.00
2022-09-15T03:49:40.022Z,0.00
2022-09-15T03:50:40.222Z,0.00
2022-09-15T03:51:40.400Z,0.00
2022-09-15T03:52:40.619Z,0.00
2022-09-15T03:53:40.807Z,0.00
2022-09-15T03:54:40.983Z,0.00
2022-09-15T03:55:41.246Z,0.00
2022-09-15T03:56:41.314Z,0.00
2022-09-15T03:57:41.503Z,0.00
2022-09-15T03:58:41.706Z,0.00
2022-09-15T03:59:41.873Z,0.00
2022-09-15T04:00:42.087Z,0.00
2022-09-15T04:01:42.331Z,0.00
2022-09-15T04:02:42.516Z,0.00
2022-09-15T04:03:47.591Z,0.00
2022-09-15T04:04:43.898Z,0.00
2022-09-15T04:05:43.138Z,0.00
2022-09-15T04:06:43.281Z,0.00
2022-09-15T04:07:43.433Z,0.00
2022-09-15T04:08:43.662Z,0.00
2022-09-15T04:09:43.876Z,0.00
2022-09-15T04:10:44.121Z,0.00
2022-09-15T04:11:44.257Z,0.00
2022-09-15T04:12:44.507Z,4.00
2022-09-15T04:13:44.638Z,4.00
2022-09-15T04:14:44.769Z,0.00
2022-09-15T04:15:44.902Z,4.00
2022-09-15T04:16:45.103Z,4.00
2022-09-15T04:17:45.245Z,4.00
2022-09-15T04:18:45.399Z,8.00
2022-09-15T04:19:45.531Z,4.00
2022-09-15T04:20:45.774Z,8.00
2022-09-15T04:21:45.931Z,12.00
2022-09-15T04:22:46.167Z,12.00
2022-09-15T04:23:46.351Z,12.00
2022-09-15T04:24:46.529Z,16.00
2022-09-15T04:25:46.711Z,20.00
2022-09-15T04:26:46.898Z,24.00
2022-09-15T04:27:47.090Z,24.00
2022-09-15T04:28:47.259Z,28.00
2022-09-15T04:29:47.441Z,32.00
2022-09-15T04:30:47.638Z,36.00
2022-09-15T04:31:47.887Z,44.00
2022-09-15T04:32:47.950Z,52.00
2022-09-15T04:33:48.163Z,56.00
2022-09-15T04:34:48.342Z,68.00
2022-09-15T04:35:48.522Z,72.00
2022-09-15T04:36:48.701Z,88.00
2022-09-15T04:37:48.906Z,96.00
2022-09-15T04:38:49.091Z,108.00
2022-09-15T04:39:49.357Z,120.00
2022-09-15T04:40:49.442Z,136.00
2022-09-15T04:41:49.624Z,152.00
2022-09-15T04:42:49.819Z,160.00
2022-09-15T04:43:50.007Z,176.00
2022-09-15T04:44:50.177Z,192.00
2022-09-15T04:45:50.357Z,208.00
2022-09-15T04:46:50.630Z,224.00
2022-09-15T04:47:50.726Z,244.00
2022-09-15T04:48:50.906Z,260.00
2022-09-15T04:49:51.084Z,280.00
2022-09-15T04:50:51.259Z,304.00
2022-09-15T04:51:51.444Z,320.00
2022-09-15T04:52:51.666Z,340.00
2022-09-15T04:53:52.150Z,360.00
2022-09-15T04:54:52.095Z,384.00
2022-09-15T04:55:52.293Z,408.00
2022-09-15T04:56:52.490Z,428.00
2022-09-15T04:57:52.773Z,460.00
2022-09-15T04:58:53.209Z,476.00
2022-09-15T04:59:53.058Z,500.00
2022-09-15T05:00:54.189Z,524.00
2022-09-15T05:01:53.457Z,548.00
2022-09-15T05:02:53.629Z,572.00
2022-09-15T05:03:53.803Z,604.00
2022-09-15T05:04:54.072Z,620.00
2022-09-15T05:05:54.051Z,656.00
2022-09-15T05:06:54.233Z,676.00
2022-09-15T05:07:54.436Z,700.00
2022-09-15T05:08:54.623Z,728.00
2022-09-15T05:09:54.811Z,760.00
2022-09-15T05:10:55.013Z,788.00
2022-09-15T05:11:55.196Z,816.00
2022-09-15T05:12:55.414Z,840.00
2022-09-15T05:13:55.605Z,868.00
2022-09-15T05:14:55.794Z,896.00
2022-09-15T05:15:56.029Z,920.00
2022-09-15T05:16:56.130Z,952.00
2022-09-15T05:17:56.340Z,980.00
2022-09-15T05:18:56.522Z,1012.00
2022-09-15T05:19:56.783Z,1056.00
2022-09-15T05:20:56.909Z,1096.00
2022-09-15T05:21:57.118Z,1132.00
2022-09-15T05:22:57.335Z,1156.00
2022-09-15T05:23:57.526Z,1188.00
2022-09-15T05:24:57.713Z,1220.00
2022-09-15T05:25:58.533Z,1264.00
2022-09-15T05:26:58.037Z,1312.00
2022-09-15T05:27:58.241Z,1368.00
2022-09-15T05:28:58.434Z,1412.00
2022-09-15T05:30:23.561Z,1460.00
2022-09-15T05:30:59.849Z,1512.00
2022-09-15T05:31:58.947Z,1564.00
2022-09-15T05:32:59.155Z,1584.00
2022-09-15T05:33:59.346Z,1604.00
2022-09-15T05:34:59.561Z,1652.00
2022-09-15T05:35:59.733Z,1672.00
2022-09-15T05:37:06.950Z,1720.00
2022-09-15T05:38:00.129Z,1780.00
2022-09-15T05:39:00.339Z,1784.00
2022-09-15T05:40:02.404Z,1836.00
2022-09-15T05:41:00.710Z,1920.00
2022-09-15T05:42:00.874Z,1900.00
2022-09-15T05:43:01.069Z,1948.00
2022-09-15T05:44:01.265Z,1964.00
2022-09-15T05:45:01.450Z,2000.00
2022-09-15T05:46:01.618Z,2120.00
2022-09-15T05:47:01.912Z,2052.00
2022-09-15T05:48:02.019Z,2104.00
2022-09-15T05:49:02.208Z,2144.00
2022-09-15T05:50:02.383Z,2216.00
2022-09-15T05:51:02.561Z,2240.00
2022-09-15T05:52:02.742Z,2280.00
2022-09-15T05:53:02.952Z,2324.00
2022-09-15T05:54:03.115Z,2396.00
2022-09-15T05:55:03.393Z,2440.00
2022-09-15T05:56:03.458Z,2488.00
2022-09-15T05:57:03.656Z,2488.00
2022-09-15T05:58:03.851Z,2536.00
2022-09-15T05:59:04.032Z,2552.00
2022-09-15T06:00:04.214Z,2628.00
2022-09-15T06:01:04.393Z,2676.00
2022-09-15T06:02:05.873Z,2788.00
2022-09-15T06:03:04.793Z,2792.00
2022-09-15T06:04:04.941Z,2884.00
2022-09-15T06:05:05.130Z,2876.00
2022-09-15T06:06:05.314Z,2928.00
2022-09-15T06:07:05.505Z,3004.00
2022-09-15T06:08:05.706Z,3000.00
2022-09-15T06:09:05.991Z,3036.00
2022-09-15T06:10:06.033Z,3280.00
2022-09-15T06:11:06.290Z,3212.00
2022-09-15T06:12:06.334Z,3264.00
2022-09-15T06:13:06.528Z,3304.00
2022-09-15T06:14:06.689Z,3376.00
2022-09-15T06:15:06.863Z,3536.00
2022-09-15T06:16:07.092Z,3636.00
2022-09-15T06:17:07.157Z,3968.00
2022-09-15T06:18:07.408Z,4076.00
2022-09-15T06:19:07.471Z,4276.00
2022-09-15T06:20:07.633Z,4676.00
2022-09-15T06:21:07.823Z,4864.00
2022-09-15T06:22:07.987Z,4868.00
2022-09-15T06:23:08.159Z,4920.00
2022-09-15T06:24:08.342Z,4788.00
2022-09-15T06:25:08.507Z,4868.00
2022-09-15T06:26:08.661Z,4928.00
2022-09-15T06:27:08.825Z,4556.00
2022-09-15T06:28:09.107Z,5272.00
2022-09-15T06:29:09.154Z,4904.00
2022-09-15T06:30:09.310Z,5004.00
2022-09-15T06:31:09.488Z,5880.00
2022-09-15T06:32:09.738Z,5984.00
2022-09-15T06:33:09.872Z,5664.00
2022-09-15T06:34:10.025Z,5800.00
2022-09-15T06:35:10.198Z,5520.00
2022-09-15T06:36:10.352Z,4784.00
2022-09-15T06:37:10.519Z,4748.00
2022-09-15T06:38:10.697Z,4936.00
2022-09-15T06:39:10.866Z,5144.00
2022-09-15T06:40:11.059Z,5292.00
2022-09-15T06:41:11.205Z,4924.00
2022-09-15T06:42:13.806Z,5196.00
2022-09-15T06:43:11.528Z,5328.00
2022-09-15T06:44:11.696Z,6448.00
2022-09-15T06:45:11.934Z,5472.00
2022-09-15T06:46:12.005Z,6684.00
2022-09-15T06:47:12.114Z,5544.00
2022-09-15T06:48:24.059Z,6372.00
2022-09-15T06:49:13.396Z,5836.00
2022-09-15T06:50:12.553Z,5960.00
2022-09-15T06:51:12.708Z,5988.00
2022-09-15T06:52:12.877Z,6124.00
2022-09-15T06:53:13.821Z,6140.00
2022-09-15T06:54:13.206Z,6028.00
2022-09-15T06:55:13.379Z,6184.00
2022-09-15T06:56:13.518Z,6368.00
2022-09-15T06:57:13.674Z,6576.00
2022-09-15T06:58:13.851Z,6660.00
2022-09-15T06:59:13.995Z,6828.00
2022-09-15T07:00:14.155Z,7232.00
2022-09-15T07:01:14.332Z,7284.00
2022-09-15T07:02:14.619Z,7480.00
2022-09-15T07:03:14.733Z,7832.00
2022-09-15T07:04:14.764Z,6796.00
2022-09-15T07:05:14.907Z,6776.00
2022-09-15T07:06:15.104Z,8252.00
2022-09-15T07:07:15.135Z,6544.00
2022-09-15T07:08:15.292Z,6100.00
2022-09-15T07:09:15.444Z,6644.00
2022-09-15T07:10:16.171Z,6764.00
2022-09-15T07:11:15.773Z,6924.00
2022-09-15T07:12:15.929Z,7188.00
2022-09-15T07:13:16.079Z,7440.00
2022-09-15T07:14:16.224Z,7800.00
2022-09-15T07:15:16.387Z,7972.00
2022-09-15T07:16:16.624Z,7816.00
2022-09-15T07:17:16.637Z,9116.00
2022-09-15T07:18:16.805Z,8020.00
2022-09-15T07:19:16.946Z,8248.00
2022-09-15T07:20:17.076Z,7948.00
2022-09-15T07:21:17.222Z,9500.00
2022-09-15T07:22:17.367Z,8268.00
2022-09-15T07:23:17.634Z,9792.00
2022-09-15T07:24:17.661Z,9088.00
2022-09-15T07:25:17.791Z,8284.00
2022-09-15T07:26:17.943Z,8660.00
2022-09-15T07:27:18.076Z,8536.00
2022-09-15T07:28:18.238Z,8440.00
2022-09-15T07:29:18.374Z,11092.00
2022-09-15T07:30:18.521Z,9944.00
2022-09-15T07:31:18.695Z,14368.00
2022-09-15T07:32:18.874Z,11884.00
2022-09-15T07:33:19.023Z,8788.00
2022-09-15T07:34:19.178Z,12856.00
2022-09-15T07:35:19.308Z,7592.00
2022-09-15T07:36:19.477Z,7140.00
2022-09-15T07:37:19.620Z,6232.00
2022-09-15T07:38:19.784Z,5644.00
2022-09-15T07:39:19.920Z,5408.00
2022-09-15T07:40:20.101Z,5428.00
2022-09-15T07:41:20.165Z,5356.00
2022-09-15T07:42:20.295Z,5384.00
2022-09-15T07:43:20.460Z,5716.00
2022-09-15T07:44:20.620Z,6224.00
2022-09-15T07:45:20.820Z,6688.00
2022-09-15T07:46:20.980Z,6844.00
2022-09-15T07:47:21.107Z,6336.00
2022-09-15T07:48:25.719Z,6612.00
2022-09-15T07:49:22.350Z,7440.00
2022-09-15T07:50:21.500Z,9732.00
2022-09-15T07:51:21.734Z,8648.00
2022-09-15T07:52:21.720Z,10416.00
2022-09-15T07:53:22.099Z,10196.00
2022-09-15T07:54:23.087Z,8128.00
2022-09-15T07:55:22.169Z,8624.00
2022-09-15T07:56:22.329Z,8204.00
2022-09-15T07:57:22.463Z,10876.00
2022-09-15T07:58:22.641Z,8904.00
2022-09-15T07:59:22.778Z,9044.00
2022-09-15T08:00:22.969Z,9484.00
2022-09-15T08:01:23.103Z,25088.00
2022-09-15T08:02:24.801Z,8124.00
2022-09-15T08:03:23.411Z,8128.00
2022-09-15T08:04:23.558Z,9920.00
2022-09-15T08:05:23.699Z,11012.00
2022-09-15T08:06:23.853Z,11800.00
2022-09-15T08:07:23.993Z,41216.00
2022-09-15T08:08:24.187Z,10084.00
2022-09-15T08:09:24.326Z,11076.00
2022-09-15T08:10:24.468Z,11388.00
2022-09-15T08:11:24.609Z,11556.00
2022-09-15T08:12:24.780Z,15264.00
2022-09-15T08:13:24.949Z,13812.00
2022-09-15T08:14:25.088Z,27232.00
2022-09-15T08:15:25.246Z,18272.00
2022-09-15T08:16:25.483Z,18080.00
2022-09-15T08:17:25.570Z,22368.00
2022-09-15T08:18:25.717Z,20896.00
2022-09-15T08:19:25.930Z,15296.00
2022-09-15T08:20:25.946Z,15392.00
2022-09-15T08:21:26.072Z,15936.00
2022-09-15T08:22:26.209Z,19392.00
2022-09-15T08:23:26.347Z,18048.00
2022-09-15T08:24:26.471Z,21760.00
2022-09-15T08:25:26.608Z,17536.00
2022-09-15T08:26:26.776Z,19104.00
2022-09-15T08:27:26.907Z,17696.00
2022-09-15T08:28:27.086Z,13096.00
2022-09-15T08:29:27.090Z,11872.00
2022-09-15T08:30:27.217Z,10128.00
2022-09-15T08:31:27.393Z,9728.00
2022-09-15T08:32:27.592Z,10720.00
2022-09-15T08:33:27.629Z,12352.00
2022-09-15T08:34:27.756Z,12716.00
2022-09-15T08:35:27.882Z,12832.00
2022-09-15T08:36:28.400Z,13268.00
2022-09-15T08:37:28.403Z,13976.00
2022-09-15T08:38:28.233Z,13564.00
2022-09-15T08:39:28.366Z,13876.00
2022-09-15T08:40:28.627Z,14236.00
2022-09-15T08:41:28.662Z,14304.00
2022-09-15T08:42:28.791Z,14308.00
2022-09-15T08:43:28.934Z,16096.00
2022-09-15T08:44:29.047Z,17504.00
2022-09-15T08:45:29.187Z,12536.00
2022-09-15T08:46:29.365Z,10884.00
2022-09-15T08:47:29.461Z,10596.00
2022-09-15T08:48:29.614Z,11000.00
2022-09-15T08:49:49.966Z,13888.00
2022-09-15T08:50:30.876Z,10272.00
2022-09-15T08:51:29.992Z,10304.00
2022-09-15T08:52:30.132Z,9916.00
2022-09-15T08:53:30.256Z,9664.00
2022-09-15T08:54:30.395Z,9400.00
2022-09-15T08:55:30.527Z,9476.00
2022-09-15T08:56:30.659Z,9228.00
2022-09-15T08:57:30.774Z,8968.00
2022-09-15T08:58:30.904Z,9792.00
2022-09-15T08:59:31.025Z,9916.00
2022-09-15T09:00:31.164Z,10132.00
2022-09-15T09:01:31.354Z,9448.00
2022-09-15T09:02:31.476Z,9096.00
2022-09-15T09:03:31.587Z,8924.00
2022-09-15T09:04:31.718Z,8508.00
2022-09-15T09:05:31.837Z,7988.00
2022-09-15T09:06:31.991Z,7124.00
2022-09-15T09:07:32.134Z,6840.00
2022-09-15T09:08:32.276Z,6584.00
2022-09-15T09:09:32.419Z,5832.00
2022-09-15T09:10:32.557Z,5748.00
2022-09-15T09:11:32.745Z,5728.00
2022-09-15T09:12:32.757Z,5740.00
2022-09-15T09:13:35.559Z,5748.00
2022-09-15T09:14:33.090Z,5716.00
2022-09-15T09:15:33.302Z,5836.00
2022-09-15T09:16:33.369Z,5900.00
2022-09-15T09:17:33.508Z,5820.00
2022-09-15T09:18:33.644Z,6112.00
2022-09-15T09:19:33.782Z,6244.00
2022-09-15T09:20:33.927Z,7104.00
2022-09-15T09:21:34.233Z,7932.00
2022-09-15T09:22:34.275Z,8608.00
2022-09-15T09:23:34.416Z,9380.00
2022-09-15T09:24:34.560Z,10340.00
2022-09-15T09:25:34.715Z,11572.00
2022-09-15T09:26:34.878Z,11784.00
2022-09-15T09:27:35.031Z,16448.00
2022-09-15T09:28:35.179Z,13604.00
2022-09-15T09:29:35.308Z,13604.00
2022-09-15T09:30:35.487Z,13876.00
2022-09-15T09:31:35.611Z,14644.00
2022-09-15T09:32:35.761Z,14776.00
2022-09-15T09:33:37.194Z,14676.00
2022-09-15T09:34:36.155Z,15328.00
2022-09-15T09:35:36.214Z,16448.00
2022-09-15T09:36:36.359Z,16256.00
2022-09-15T09:37:36.523Z,16608.00
2022-09-15T09:38:36.682Z,23424.00
2022-09-15T09:39:36.809Z,17120.00
2022-09-15T09:40:37.098Z,18272.00
2022-09-15T09:41:37.034Z,18304.00
2022-09-15T09:42:37.174Z,18336.00
2022-09-15T09:43:37.319Z,17664.00
2022-09-15T09:44:37.443Z,19744.00
2022-09-15T09:45:37.571Z,20992.00
2022-09-15T09:46:37.757Z,33312.00
2022-09-15T09:47:37.767Z,23360.00
2022-09-15T09:48:37.893Z,21440.00
2022-09-15T09:49:38.005Z,23552.00
2022-09-15T09:50:38.137Z,23808.00
2022-09-15T09:51:38.304Z,27424.00
2022-09-15T09:52:38.424Z,31968.00
2022-09-15T09:53:38.533Z,31808.00
2022-09-15T09:54:38.671Z,32096.00
2022-09-15T09:55:38.764Z,28096.00
2022-09-15T09:56:38.885Z,27200.00
2022-09-15T09:57:40.860Z,40160.00
2022-09-15T09:58:39.157Z,29216.00
2022-09-15T09:59:39.278Z,40096.00
2022-09-15T10:00:39.384Z,44192.00
2022-09-15T10:01:39.533Z,37152.00
2022-09-15T10:02:39.545Z,51136.00
2022-09-15T10:03:39.651Z,29600.00
2022-09-15T10:04:39.774Z,32352.00
2022-09-15T10:05:39.891Z,45664.00
2022-09-15T10:06:40.005Z,32480.00
2022-09-15T10:07:40.102Z,51456.00
2022-09-15T10:08:40.202Z,48352.00
2022-09-15T10:09:40.307Z,44640.00
2022-09-15T10:10:40.414Z,33472.00
2022-09-15T10:11:40.549Z,36832.00
2022-09-15T10:12:40.651Z,45632.00
2022-09-15T10:13:40.725Z,73952.00
2022-09-15T10:14:40.809Z,89952.00
2022-09-15T10:15:40.893Z,22272.00
2022-09-15T10:16:41.116Z,21280.00
2022-09-15T10:17:41.025Z,21408.00
2022-09-15T10:18:41.080Z,15872.00
2022-09-15T10:19:41.163Z,13496.00
2022-09-15T10:20:41.248Z,19328.00
2022-09-15T10:21:41.332Z,22048.00
2022-09-15T10:22:41.416Z,18080.00
2022-09-15T10:23:41.578Z,19872.00
2022-09-15T10:24:41.553Z,67392.00
2022-09-15T10:25:58.672Z,59616.00
2022-09-15T10:26:42.676Z,43296.00
2022-09-15T10:27:41.751Z,25856.00
2022-09-15T10:28:41.833Z,33792.00
2022-09-15T10:29:41.926Z,38848.00
2022-09-15T10:30:41.993Z,47328.00
2022-09-15T10:31:42.132Z,41632.00
2022-09-15T10:32:42.184Z,15648.00
2022-09-15T10:33:42.267Z,13440.00
2022-09-15T10:34:42.345Z,14180.00
2022-09-15T10:35:42.444Z,83744.00
2022-09-15T10:36:42.514Z,11756.00
2022-09-15T10:37:42.635Z,78816.00
2022-09-15T10:38:42.720Z,76672.00
2022-09-15T10:39:42.775Z,72288.00
2022-09-15T10:40:42.844Z,33536.00
2022-09-15T10:41:42.930Z,43104.00
2022-09-15T10:42:42.995Z,43648.00
2022-09-15T10:43:43.092Z,17568.00
2022-09-15T10:44:43.154Z,67776.00
2022-09-15T10:45:43.280Z,84000.00
2022-09-15T10:46:43.324Z,13356.00
2022-09-15T10:47:43.391Z,16000.00
2022-09-15T10:48:43.455Z,75840.00
2022-09-15T10:49:43.515Z,76896.00
2022-09-15T10:50:43.583Z,67904.00
2022-09-15T10:51:43.646Z,43232.00
2022-09-15T10:52:43.716Z,16928.00
2022-09-15T10:53:43.778Z,15744.00
2022-09-15T10:54:43.844Z,14752.00
2022-09-15T10:55:52.685Z,25472.00
2022-09-15T10:56:44.848Z,72864.00
2022-09-15T10:57:43.929Z,15872.00
2022-09-15T10:58:45.790Z,11348.00
2022-09-15T10:59:44.040Z,20448.00
2022-09-15T11:00:44.167Z,10940.00
2022-09-15T11:01:44.300Z,7060.00
2022-09-15T11:02:44.257Z,6580.00
2022-09-15T11:03:44.350Z,6724.00
2022-09-15T11:04:44.418Z,6752.00
2022-09-15T11:05:44.502Z,7252.00
2022-09-15T11:06:44.578Z,7976.00
2022-09-15T11:07:44.676Z,7976.00
2022-09-15T11:08:44.802Z,8636.00
2022-09-15T11:09:44.913Z,6908.00
2022-09-15T11:10:45.012Z,8468.00
2022-09-15T11:11:45.112Z,6588.00
2022-09-15T11:12:45.207Z,5856.00
2022-09-15T11:13:45.298Z,5116.00
2022-09-15T11:14:45.400Z,4576.00
2022-09-15T11:15:45.507Z,4376.00
2022-09-15T11:16:45.655Z,4348.00
2022-09-15T11:17:45.752Z,5008.00
2022-09-15T11:18:45.880Z,5836.00
2022-09-15T11:19:45.980Z,7452.00
2022-09-15T11:20:46.086Z,8064.00
2022-09-15T11:21:46.197Z,8888.00
2022-09-15T11:22:49.628Z,10992.00
2022-09-15T11:23:46.450Z,11120.00
2022-09-15T11:24:46.560Z,12412.00
2022-09-15T11:25:46.675Z,43424.00
2022-09-15T11:26:46.798Z,42816.00
2022-09-15T11:27:46.929Z,55584.00
2022-09-15T11:28:47.047Z,41952.00
2022-09-15T11:29:47.166Z,40000.00
2022-09-15T11:30:47.980Z,43808.00
2022-09-15T11:31:47.401Z,44896.00
2022-09-15T11:32:47.453Z,12844.00
2022-09-15T11:33:47.550Z,12920.00
2022-09-15T11:34:47.650Z,13228.00
2022-09-15T11:35:47.759Z,11456.00
2022-09-15T11:36:47.858Z,9464.00
2022-09-15T11:37:47.988Z,8504.00
2022-09-15T11:38:48.110Z,8616.00
2022-09-15T11:39:48.266Z,9300.00
2022-09-15T11:40:48.254Z,10888.00
2022-09-15T11:41:48.356Z,58176.00
2022-09-15T11:42:48.461Z,17792.00
2022-09-15T11:43:48.566Z,26080.00
2022-09-15T11:44:48.673Z,20000.00
2022-09-15T11:45:48.774Z,13384.00
2022-09-15T11:46:48.921Z,10848.00
2022-09-15T11:47:49.028Z,10548.00
2022-09-15T11:48:49.136Z,10620.00
2022-09-15T11:49:49.248Z,11184.00
2022-09-15T11:50:49.352Z,32032.00
2022-09-15T11:51:49.456Z,16768.00
2022-09-15T11:52:49.574Z,19392.00
2022-09-15T11:53:49.709Z,18944.00
2022-09-15T11:54:49.800Z,13436.00
2022-09-15T11:55:49.917Z,14816.00
2022-09-15T11:56:50.025Z,28416.00
2022-09-15T11:57:50.155Z,15904.00
2022-09-15T11:58:50.253Z,24576.00
2022-09-15T11:59:50.352Z,13836.00
2022-09-15T12:00:50.452Z,9516.00
2022-09-15T12:01:50.612Z,8604.00
2022-09-15T12:02:50.698Z,8076.00
2022-09-15T12:03:50.690Z,7248.00
2022-09-15T12:04:50.764Z,6096.00
2022-09-15T12:05:50.875Z,7588.00
2022-09-15T12:06:51.096Z,42720.00
2022-09-15T12:07:51.126Z,16384.00
2022-09-15T12:08:51.247Z,12792.00
2022-09-15T12:09:51.346Z,9728.00
2022-09-15T12:10:51.463Z,7276.00
2022-09-15T12:11:51.547Z,5776.00
2022-09-15T12:12:51.681Z,4840.00
2022-09-15T12:13:51.810Z,3720.00
2022-09-15T12:14:51.921Z,3012.00
2022-09-15T12:15:52.067Z,2624.00
2022-09-15T12:16:52.155Z,2424.00
2022-09-15T12:17:52.315Z,2356.00
2022-09-15T12:18:52.434Z,2740.00
2022-09-15T12:19:52.755Z,3260.00
2022-09-15T12:20:52.716Z,4164.00
2022-09-15T12:21:52.846Z,5416.00
2022-09-15T12:22:53.011Z,4584.00
2022-09-15T12:23:53.185Z,4156.00
2022-09-15T12:24:53.301Z,3776.00
2022-09-15T12:25:53.432Z,3112.00
2022-09-15T12:26:53.939Z,2472.00
2022-09-15T12:27:53.762Z,1824.00